Time;durP1;ratioP1;P1;durP2;ratioP2;P2;SDS_P1;SDS_P2;PMS_P1;PMS_P2;Temp;Humidity;BMP_temperature;BMP_pressure;BME280_temperature;BME280_humidity;BME280_pressure;Samples;Min_cycle;Max_cycle;Signal;HPM_P1;HPM_P2
2023/08/23 00:00:30;;;;;;;5.45;1.17;;;;;;;-145.81;100.00;67990.72;2052914;28;20027;-73
2023/08/23 00:01:34;;;;;;;2.97;1.77;;;;;;;-145.81;100.00;67990.72;2052456;28;20031;-74
2023/08/23 00:02:37;;;;;;;2.28;1.20;;;;;;;-145.81;100.00;67990.72;2060744;28;20071;-74
2023/08/23 00:03:42;;;;;;;3.35;1.23;;;;;;;-145.81;100.00;67990.72;2067388;28;20066;-75
2023/08/23 00:04:44;;;;;;;2.75;1.55;;;;;;;-145.81;100.00;67990.72;2067483;28;20042;-75
2023/08/23 00:05:46;;;;;;;2.33;1.10;;;;;;;-145.81;100.00;67990.72;2060030;28;22449;-74
2023/08/23 00:06:51;;;;;;;2.67;1.10;;;;;;;-145.81;100.00;67990.72;2060515;28;20901;-75
2023/08/23 00:07:56;;;;;;;4.18;1.27;;;;;;;-145.81;100.00;67990.72;2064904;28;20082;-75
2023/08/23 00:09:00;;;;;;;2.88;1.20;;;;;;;-145.81;100.00;67990.72;2050987;28;20019;-75
2023/08/23 00:10:02;;;;;;;5.13;1.20;;;;;;;-145.81;100.00;67990.72;2043761;28;20040;-75
2023/08/23 00:11:10;;;;;;;1.58;1.05;;;;;;;-145.81;100.00;67990.72;2052810;28;20030;-74
2023/08/23 00:12:12;;;;;;;2.05;0.90;;;;;;;-145.81;100.00;67990.72;2043841;28;20155;-74
2023/08/23 00:13:13;;;;;;;2.00;1.20;;;;;;;-145.81;100.00;67990.72;2036093;29;20039;-76
2023/08/23 00:14:17;;;;;;;1.60;1.10;;;;;;;-145.81;100.00;67990.72;2044127;28;20063;-74
2023/08/23 00:15:19;;;;;;;3.97;1.42;;;;;;;-145.81;100.00;67990.72;2059585;28;20023;-76
2023/08/23 00:16:24;;;;;;;3.35;1.30;;;;;;;-145.81;100.00;67990.72;2059224;28;20802;-74
2023/08/23 00:17:25;;;;;;;2.60;1.10;;;;;;;-145.81;100.00;67990.72;2052109;28;20039;-74
2023/08/23 00:18:26;;;;;;;1.75;1.17;;;;;;;-145.81;100.00;67990.72;2068344;28;20030;-75
2023/08/23 00:19:29;;;;;;;3.22;1.20;;;;;;;-145.81;100.00;67990.72;2067922;28;20117;-74
2023/08/23 00:20:30;;;;;;;2.83;1.10;;;;;;;-145.81;100.00;67990.72;2051414;28;20986;-75
2023/08/23 00:21:33;;;;;;;2.03;1.20;;;;;;;-145.81;100.00;67990.72;2052074;28;20024;-77
2023/08/23 00:22:35;;;;;;;5.03;1.20;;;;;;;-145.81;100.00;67990.72;2051794;28;20168;-75
2023/08/23 00:23:40;;;;;;;2.10;1.13;;;;;;;-145.81;100.00;67990.72;2058933;28;20023;-75
2023/08/23 00:24:42;;;;;;;2.78;1.10;;;;;;;-145.81;100.00;67990.72;2059740;28;20039;-76
2023/08/23 00:25:46;;;;;;;3.97;1.42;;;;;;;-145.81;100.00;67990.72;2057572;28;20074;-76
2023/08/23 00:26:49;;;;;;;3.67;1.30;;;;;;;-145.81;100.00;67990.72;2067583;28;20751;-75
2023/08/23 00:27:51;;;;;;;3.00;1.20;;;;;;;-145.81;100.00;67990.72;2043857;28;20876;-75
2023/08/23 00:28:52;;;;;;;6.97;2.03;;;;;;;-145.81;100.00;67990.72;2043725;28;20020;-75
2023/08/23 00:29:54;;;;;;;3.70;1.30;;;;;;;-145.81;100.00;67990.72;2051823;28;20843;-76
2023/08/23 00:30:56;;;;;;;5.07;1.13;;;;;;;-145.81;100.00;67990.72;2051857;28;20039;-76
2023/08/23 00:31:58;;;;;;;2.05;1.15;;;;;;;-145.81;100.00;67990.72;2051942;28;20832;-75
2023/08/23 00:33:02;;;;;;;3.35;1.38;;;;;;;-145.81;100.00;67990.72;2060199;28;20090;-75
2023/08/23 00:34:05;;;;;;;2.72;1.20;;;;;;;-145.81;100.00;67990.72;2060107;28;20043;-80
2023/08/23 00:35:10;;;;;;;4.47;1.30;;;;;;;-145.81;100.00;67990.72;2043904;28;20840;-75
2023/08/23 00:36:12;;;;;;;3.15;1.30;;;;;;;-145.81;100.00;67990.72;2060419;28;20034;-76
2023/08/23 00:37:18;;;;;;;2.08;1.10;;;;;;;-145.81;100.00;67990.72;2059781;28;20042;-75
2023/08/23 00:38:21;;;;;;;2.25;1.20;;;;;;;-145.81;100.00;67990.72;2060417;28;20023;-75
2023/08/23 00:39:24;;;;;;;3.42;1.30;;;;;;;-145.81;100.00;67990.72;2050859;28;20104;-75
2023/08/23 00:40:26;;;;;;;4.30;1.42;;;;;;;-145.81;100.00;67990.72;2044549;28;20104;-75
2023/08/23 00:41:28;;;;;;;4.38;1.30;;;;;;;-145.81;100.00;67990.72;2067588;28;20043;-76
2023/08/23 00:42:32;;;;;;;4.50;1.40;;;;;;;-145.81;100.00;67990.72;2051678;28;20028;-75
2023/08/23 00:43:38;;;;;;;3.13;1.50;;;;;;;-145.81;100.00;67990.72;2054448;28;20055;-75
2023/08/23 00:44:42;;;;;;;3.53;1.20;;;;;;;-145.81;100.00;67990.72;2067598;28;20043;-73
2023/08/23 00:45:45;;;;;;;3.13;1.40;;;;;;;-145.81;100.00;67990.72;2059995;28;20026;-74
2023/08/23 00:46:50;;;;;;;3.75;1.40;;;;;;;-145.81;100.00;67990.72;2060287;28;20039;-74
2023/08/23 00:47:53;;;;;;;2.67;1.17;;;;;;;-145.81;100.00;67990.72;2067526;28;20046;-74
2023/08/23 00:48:56;;;;;;;3.03;1.40;;;;;;;-145.81;100.00;67990.72;2076055;28;20043;-74
2023/08/23 00:49:59;;;;;;;2.60;1.30;;;;;;;-145.81;100.00;67990.72;2067287;28;20031;-73
2023/08/23 00:51:03;;;;;;;6.63;1.20;;;;;;;-145.81;100.00;67990.72;2060102;28;20047;-73
2023/08/23 00:52:14;;;;;;;4.22;1.15;;;;;;;-145.81;100.00;67990.72;2067662;28;20031;-75
2023/08/23 00:53:16;;;;;;;4.00;1.10;;;;;;;-145.81;100.00;67990.72;2042917;28;20064;-74
2023/08/23 00:54:18;;;;;;;4.13;1.20;;;;;;;-145.81;100.00;67990.72;2051926;28;20134;-74
2023/08/23 00:55:22;;;;;;;3.90;1.10;;;;;;;-145.81;100.00;67990.72;2051654;28;20189;-74
2023/08/23 00:56:25;;;;;;;2.10;1.20;;;;;;;-145.81;100.00;67990.72;2042702;28;20852;-74
2023/08/23 00:57:28;;;;;;;3.15;1.20;;;;;;;-145.81;100.00;67990.72;2050663;28;20031;-74
2023/08/23 00:58:30;;;;;;;4.40;1.70;;;;;;;-145.81;100.00;67990.72;2043814;28;20905;-74
2023/08/23 00:59:35;;;;;;;3.22;1.35;;;;;;;-145.81;100.00;67990.72;2036838;28;20033;-74
2023/08/23 01:00:41;;;;;;;6.07;1.30;;;;;;;-145.81;100.00;67990.72;2045408;28;20261;-74
2023/08/23 01:01:44;;;;;;;2.85;1.27;;;;;;;-145.81;100.00;67990.72;2051794;28;20032;-75
2023/08/23 01:02:45;;;;;;;5.22;1.40;;;;;;;-145.81;100.00;67990.72;2052189;28;20034;-73
2023/08/23 01:03:49;;;;;;;6.18;1.25;;;;;;;-145.81;100.00;67990.72;2059711;28;20047;-74
2023/08/23 01:04:51;;;;;;;3.88;1.75;;;;;;;-145.81;100.00;67990.72;2051967;28;20036;-73
2023/08/23 01:06:13;;;;;;;3.92;1.30;;;;;;;-145.81;100.00;67990.72;2043678;28;20036;-73
2023/08/23 01:07:23;;;;;;;3.33;1.30;;;;;;;-145.81;100.00;67990.72;2036572;28;20032;-73
2023/08/23 01:08:47;;;;;;;6.05;1.38;;;;;;;-145.81;100.00;67990.72;2038969;28;20048;-74
2023/08/23 01:10:12;;;;;;;2.10;1.17;;;;;;;-145.81;100.00;67990.72;2055880;28;20082;-74
2023/08/23 01:11:22;;;;;;;;;;;;;;;-145.81;100.00;67990.72;2048828;28;20896;-74
2023/08/23 01:12:42;;;;;;;4.28;1.23;;;;;;;-145.81;100.00;67990.72;2045033;28;19925;-74
2023/08/23 01:14:04;;;;;;;2.65;1.30;;;;;;;-145.81;100.00;67990.72;2055047;28;20819;-74
2023/08/23 01:15:07;;;;;;;3.00;1.40;;;;;;;-145.81;100.00;67990.72;2053075;28;20118;-75
2023/08/23 01:16:10;;;;;;;2.70;1.10;;;;;;;-145.81;100.00;67990.72;2053291;28;20039;-74
2023/08/23 01:17:15;;;;;;;5.72;1.20;;;;;;;-145.81;100.00;67990.72;2045019;28;20175;-74
2023/08/23 01:18:19;;;;;;;3.90;1.42;;;;;;;-145.81;100.00;67990.72;2053710;28;20066;-74
2023/08/23 01:19:44;;;;;;;3.55;1.27;;;;;;;-145.81;100.00;67990.72;2053139;28;20035;-74
2023/08/23 01:20:52;;;;;;;4.03;1.80;;;;;;;-145.81;100.00;67990.72;2045303;29;20035;-74
2023/08/23 01:21:56;;;;;;;3.75;1.27;;;;;;;-145.81;100.00;67990.72;2046213;28;20871;-74
2023/08/23 01:23:17;;;;;;;2.72;1.30;;;;;;;-145.81;100.00;67990.72;2053931;28;20051;-75
2023/08/23 01:24:21;;;;;;;3.10;1.50;;;;;;;-145.81;100.00;67990.72;2061363;28;20027;-74
2023/08/23 01:25:23;;;;;;;2.85;1.27;;;;;;;-145.81;100.00;67990.72;2053091;28;20039;-74
2023/08/23 01:26:25;;;;;;;5.35;2.50;;;;;;;-145.81;100.00;67990.72;2053156;28;20055;-74
2023/08/23 01:27:32;;;;;;;3.63;1.25;;;;;;;-145.81;100.00;67990.72;2045742;28;20071;-74
2023/08/23 01:28:36;;;;;;;5.97;1.40;;;;;;;-145.81;100.00;67990.72;2054119;28;20083;-74
2023/08/23 01:29:42;;;;;;;3.33;1.40;;;;;;;-145.81;100.00;67990.72;2045582;28;20103;-74
2023/08/23 01:30:47;;;;;;;5.40;1.90;;;;;;;-145.81;100.00;67990.72;2039408;28;20087;-74
2023/08/23 01:31:53;;;;;;;4.82;1.40;;;;;;;-145.81;100.00;67990.72;2045658;28;20036;-75
2023/08/23 01:33:08;;;;;;;2.60;1.30;;;;;;;-145.81;100.00;67990.72;2045818;28;20048;-76
2023/08/23 01:34:23;;;;;;;2.42;1.30;;;;;;;-145.81;100.00;67990.72;2048836;28;20032;-75
2023/08/23 01:35:46;;;;;;;2.83;1.50;;;;;;;-145.81;100.00;67990.72;2054969;28;20040;-75
2023/08/23 01:36:52;;;;;;;2.95;1.20;;;;;;;-145.81;100.00;67990.72;2056245;28;20039;-75
2023/08/23 01:38:00;;;;;;;4.25;1.38;;;;;;;-145.81;100.00;67990.72;2061778;28;20126;-76
2023/08/23 01:39:06;;;;;;;6.43;1.90;;;;;;;-145.81;100.00;67990.72;2069426;28;20876;-76
2023/08/23 01:40:11;;;;;;;3.83;1.40;;;;;;;-145.81;100.00;67990.72;2068691;28;20038;-76
2023/08/23 01:41:15;;;;;;;4.78;1.50;;;;;;;-145.81;100.00;67990.72;2061416;28;20031;-76
2023/08/23 01:42:18;;;;;;;4.18;1.90;;;;;;;-145.81;100.00;67990.72;2060952;28;20099;-76
2023/08/23 01:43:19;;;;;;;4.72;1.40;;;;;;;-145.81;100.00;67990.72;2053062;28;20146;-76
2023/08/23 01:44:21;;;;;;;3.63;1.42;;;;;;;-145.81;100.00;67990.72;2053120;28;20821;-76
2023/08/23 01:45:26;;;;;;;4.78;1.38;;;;;;;-145.81;100.00;67990.72;2053779;28;20035;-76
2023/08/23 01:46:30;;;;;;;5.07;1.30;;;;;;;-145.81;100.00;67990.72;2053223;28;20034;-76
2023/08/23 01:47:35;;;;;;;4.18;1.38;;;;;;;-145.81;100.00;67990.72;2053132;28;20028;-76
2023/08/23 01:48:39;;;;;;;3.55;1.50;;;;;;;-145.81;100.00;67990.72;2053613;28;20150;-77
2023/08/23 01:49:41;;;;;;;2.13;1.52;;;;;;;-145.81;100.00;67990.72;2053097;28;20047;-76
2023/08/23 01:50:42;;;;;;;6.65;1.30;;;;;;;-145.81;100.00;67990.72;2053069;28;20039;-76
2023/08/23 01:51:48;;;;;;;4.72;1.42;;;;;;;-145.81;100.00;67990.72;2053116;28;20043;-76
2023/08/23 01:52:50;;;;;;;2.20;1.25;;;;;;;-145.81;100.00;67990.72;2060977;28;20107;-76
2023/08/23 01:53:51;;;;;;;3.40;1.40;;;;;;;-145.81;100.00;67990.72;2060902;28;20043;-76
2023/08/23 01:54:55;;;;;;;6.07;1.35;;;;;;;-145.81;100.00;67990.72;2053305;28;20034;-75
2023/08/23 01:56:00;;;;;;;3.67;1.30;;;;;;;-145.81;100.00;67990.72;2053505;28;20083;-76
2023/08/23 01:57:05;;;;;;;2.58;1.38;;;;;;;-145.81;100.00;67990.72;2061241;28;20031;-76
2023/08/23 01:58:08;;;;;;;4.68;1.88;;;;;;;-145.81;100.00;67990.72;2037623;28;20111;-75
2023/08/23 01:59:10;;;;;;;3.83;1.48;;;;;;;-145.81;100.00;67990.72;2046093;28;20033;-76
2023/08/23 02:00:13;;;;;;;3.88;2.10;;;;;;;-145.81;100.00;67990.72;2060930;28;20035;-75
2023/08/23 02:01:18;;;;;;;3.78;1.30;;;;;;;-145.81;100.00;67990.72;2054153;28;20046;-75
2023/08/23 02:02:21;;;;;;;2.50;1.33;;;;;;;-145.81;100.00;67990.72;2053130;28;20776;-75
2023/08/23 02:03:25;;;;;;;4.93;1.60;;;;;;;-145.81;100.00;67990.72;2061470;28;20854;-75
2023/08/23 02:04:28;;;;;;;2.67;1.40;;;;;;;-145.81;100.00;67990.72;2060923;28;20144;-76
2023/08/23 02:05:32;;;;;;;2.33;1.30;;;;;;;-145.81;100.00;67990.72;2061548;28;20075;-76
2023/08/23 02:06:35;;;;;;;3.65;1.30;;;;;;;-145.81;100.00;67990.72;2061190;28;20051;-76
2023/08/23 02:07:37;;;;;;;4.13;1.30;;;;;;;-145.81;100.00;67990.72;2051854;28;20851;-76
2023/08/23 02:08:41;;;;;;;4.07;1.33;;;;;;;-145.81;100.00;67990.72;2029481;29;20068;-76
2023/08/23 02:09:42;;;;;;;3.78;1.30;;;;;;;-145.81;100.00;67990.72;2038110;28;20048;-76
2023/08/23 02:10:47;;;;;;;3.30;1.48;;;;;;;-145.81;100.00;67990.72;2044670;29;20879;-76
2023/08/23 02:11:51;;;;;;;5.03;1.70;;;;;;;-145.81;100.00;67990.72;2038168;28;20036;-75
2023/08/23 02:12:54;;;;;;;7.32;1.80;;;;;;;-145.81;100.00;67990.72;2045382;28;20047;-76
2023/08/23 02:14:02;;;;;;;3.88;1.40;;;;;;;-145.81;100.00;67990.72;2052810;28;20787;-75
2023/08/23 02:15:11;;;;;;;2.97;1.35;;;;;;;-145.81;100.00;67990.72;2045409;28;20801;-76
2023/08/23 02:16:14;;;;;;;1.95;1.20;;;;;;;-145.81;100.00;67990.72;2052968;28;20043;-75
2023/08/23 02:17:21;;;;;;;4.15;1.30;;;;;;;-145.81;100.00;67990.72;2052461;28;20055;-76
2023/08/23 02:18:23;;;;;;;3.45;1.40;;;;;;;-145.81;100.00;67990.72;2045870;28;20072;-75
2023/08/23 02:19:25;;;;;;;4.47;1.38;;;;;;;-145.81;100.00;67990.72;2036883;29;20745;-76
2023/08/23 02:20:27;;;;;;;4.38;1.30;;;;;;;-145.81;100.00;67990.72;2040297;28;20035;-75
2023/08/23 02:21:30;;;;;;;2.85;1.40;;;;;;;-145.81;100.00;67990.72;2060787;28;20859;-75
2023/08/23 02:22:31;;;;;;;2.33;1.42;;;;;;;-145.81;100.00;67990.72;2053223;28;20108;-75
2023/08/23 02:23:33;;;;;;;4.88;1.30;;;;;;;-145.81;100.00;67990.72;2052463;28;20124;-75
2023/08/23 02:24:34;;;;;;;3.67;1.50;;;;;;;-145.81;100.00;67990.72;2045000;28;20040;-75
2023/08/23 02:25:41;;;;;;;1.90;1.30;;;;;;;-145.81;100.00;67990.72;2036617;28;20040;-76
2023/08/23 02:26:49;;;;;;;4.47;1.65;;;;;;;-145.81;100.00;67990.72;2038082;28;20069;-75
2023/08/23 02:27:54;;;;;;;3.67;1.48;;;;;;;-145.81;100.00;67990.72;2054834;28;20142;-75
2023/08/23 02:28:56;;;;;;;3.42;1.50;;;;;;;-145.81;100.00;67990.72;2060723;28;20035;-75
2023/08/23 02:29:58;;;;;;;2.15;1.27;;;;;;;-145.81;100.00;67990.72;2052972;28;20032;-75
2023/08/23 02:31:03;;;;;;;2.40;1.10;;;;;;;-145.81;100.00;67990.72;2053112;28;20154;-75
2023/08/23 02:32:09;;;;;;;2.55;1.40;;;;;;;-145.81;100.00;67990.72;2054174;28;20126;-76
2023/08/23 02:33:13;;;;;;;3.25;1.30;;;;;;;-145.81;100.00;67990.72;2060903;28;20895;-75
2023/08/23 02:34:15;;;;;;;3.35;1.17;;;;;;;-145.81;100.00;67990.72;2060665;28;20083;-75
2023/08/23 02:35:17;;;;;;;3.28;1.17;;;;;;;-145.81;100.00;67990.72;2044998;28;20854;-75
2023/08/23 02:36:18;;;;;;;5.00;1.83;;;;;;;-145.81;100.00;67990.72;2053368;28;20028;-75
2023/08/23 02:37:21;;;;;;;3.05;1.33;;;;;;;-145.81;100.00;67990.72;2060790;28;20103;-75
2023/08/23 02:38:23;;;;;;;1.95;1.20;;;;;;;-145.81;100.00;67990.72;2052923;28;20038;-76
2023/08/23 02:39:27;;;;;;;5.30;1.70;;;;;;;-145.81;100.00;67990.72;2052835;28;20102;-76
2023/08/23 02:40:30;;;;;;;3.88;1.35;;;;;;;-145.81;100.00;67990.72;2053559;28;20027;-76
2023/08/23 02:41:34;;;;;;;5.40;1.80;;;;;;;-145.81;100.00;67990.72;2060618;28;20145;-75
2023/08/23 02:42:36;;;;;;;4.35;1.50;;;;;;;-145.81;100.00;67990.72;2060645;28;20023;-75
2023/08/23 02:43:38;;;;;;;6.82;1.33;;;;;;;-145.81;100.00;67990.72;2052679;28;21031;-75
2023/08/23 02:44:42;;;;;;;2.35;1.40;;;;;;;-145.81;100.00;67990.72;2060921;28;20066;-76
2023/08/23 02:45:49;;;;;;;3.38;1.30;;;;;;;-145.81;100.00;67990.72;2061365;28;20035;-75
2023/08/23 02:46:55;;;;;;;2.55;1.38;;;;;;;-145.81;100.00;67990.72;2060818;28;20051;-76
2023/08/23 02:48:03;;;;;;;5.00;1.60;;;;;;;-145.81;100.00;67990.72;2061158;28;20040;-75
2023/08/23 02:49:04;;;;;;;4.35;1.40;;;;;;;-145.81;100.00;67990.72;2052765;28;20024;-75
2023/08/23 02:50:07;;;;;;;7.40;1.50;;;;;;;-145.81;100.00;67990.72;2060608;28;20135;-75
2023/08/23 02:51:11;;;;;;;6.38;2.00;;;;;;;-145.81;100.00;67990.72;2060560;28;20100;-76
2023/08/23 02:52:17;;;;;;;4.95;1.83;;;;;;;-145.81;100.00;67990.72;2061553;28;20031;-76
2023/08/23 02:53:19;;;;;;;2.80;1.40;;;;;;;-145.81;100.00;67990.72;2068817;28;20229;-75
2023/08/23 02:54:19;;;;;;;6.22;1.80;;;;;;;-145.81;100.00;67990.72;2060668;28;20075;-75
2023/08/23 02:55:23;;;;;;;2.03;1.25;;;;;;;-145.81;100.00;67990.72;2060565;28;20046;-76
2023/08/23 02:56:26;;;;;;;5.55;2.38;;;;;;;-145.81;100.00;67990.72;2060979;28;20042;-75
2023/08/23 02:57:30;;;;;;;5.18;1.50;;;;;;;-145.81;100.00;67990.72;2052667;28;20043;-75
2023/08/23 02:58:32;;;;;;;2.53;1.38;;;;;;;-145.81;100.00;67990.72;2045673;28;20029;-75
2023/08/23 02:59:37;;;;;;;3.63;1.48;;;;;;;-145.81;100.00;67990.72;2045214;28;20811;-75
2023/08/23 03:00:39;;;;;;;4.53;1.70;;;;;;;-145.81;100.00;67990.72;2053217;28;20048;-75
2023/08/23 03:01:45;;;;;;;3.60;1.25;;;;;;;-145.81;100.00;67990.72;2052886;28;20034;-75
2023/08/23 03:02:46;;;;;;;2.38;1.40;;;;;;;-145.81;100.00;67990.72;2060861;28;20954;-75
2023/08/23 03:03:52;;;;;;;4.28;1.75;;;;;;;-145.81;100.00;67990.72;2068710;28;20082;-75
2023/08/23 03:04:59;;;;;;;1.73;1.40;;;;;;;-145.81;100.00;67990.72;2052162;28;20039;-75
2023/08/23 03:06:02;;;;;;;4.43;1.60;;;;;;;-145.81;100.00;67990.72;2054448;28;20862;-76
2023/08/23 03:07:06;;;;;;;4.10;1.80;;;;;;;-145.81;100.00;67990.72;2060472;28;20079;-75
2023/08/23 03:08:11;;;;;;;5.20;1.60;;;;;;;-145.81;100.00;67990.72;2045378;28;20044;-75
2023/08/23 03:09:13;;;;;;;4.82;1.90;;;;;;;-145.81;100.00;67990.72;2053135;28;20044;-75
2023/08/23 03:10:18;;;;;;;2.83;1.30;;;;;;;-145.81;100.00;67990.72;2060643;28;20086;-75
2023/08/23 03:11:24;;;;;;;3.05;1.48;;;;;;;-145.81;100.00;67990.72;2067665;28;20047;-75
2023/08/23 03:12:27;;;;;;;2.47;1.33;;;;;;;-145.81;100.00;67990.72;2053299;28;20103;-75
2023/08/23 03:13:34;;;;;;;4.43;1.70;;;;;;;-145.81;100.00;67990.72;2044854;28;20123;-75
2023/08/23 03:14:36;;;;;;;3.35;1.70;;;;;;;-145.81;100.00;67990.72;2053778;28;20818;-75
2023/08/23 03:15:38;;;;;;;3.05;1.60;;;;;;;-145.81;100.00;67990.72;2060144;28;20050;-75
2023/08/23 03:16:42;;;;;;;5.47;1.50;;;;;;;-145.81;100.00;67990.72;2060624;28;20107;-75
2023/08/23 03:17:46;;;;;;;2.00;1.45;;;;;;;-145.81;100.00;67990.72;2053119;28;20909;-75
2023/08/23 03:18:50;;;;;;;3.30;1.55;;;;;;;-145.81;100.00;67990.72;2053730;28;20032;-74
2023/08/23 03:19:56;;;;;;;3.22;1.58;;;;;;;-145.81;100.00;67990.72;2060175;28;20036;-75
2023/08/23 03:21:00;;;;;;;2.65;1.38;;;;;;;-145.81;100.00;67990.72;2044278;29;20032;-75
2023/08/23 03:22:04;;;;;;;5.50;1.65;;;;;;;-145.81;100.00;67990.72;2053939;28;20143;-75
2023/08/23 03:23:06;;;;;;;4.20;1.60;;;;;;;-145.81;100.00;67990.72;2060466;28;20028;-75
2023/08/23 03:24:10;;;;;;;3.95;1.65;;;;;;;-145.81;100.00;67990.72;2052538;28;20115;-75
2023/08/23 03:25:13;;;;;;;4.82;1.65;;;;;;;-145.81;100.00;67990.72;2052872;28;20035;-75
2023/08/23 03:26:16;;;;;;;1.75;1.35;;;;;;;-145.81;100.00;67990.72;2060694;28;20039;-75
2023/08/23 03:27:22;;;;;;;1.80;1.30;;;;;;;-145.81;100.00;67990.72;2060485;28;20890;-75
2023/08/23 03:28:26;;;;;;;4.28;1.48;;;;;;;-145.81;100.00;67990.72;2060449;28;20027;-75
2023/08/23 03:29:28;;;;;;;3.60;1.58;;;;;;;-145.81;100.00;67990.72;2044594;28;20036;-76
2023/08/23 03:30:31;;;;;;;5.38;2.00;;;;;;;-145.81;100.00;67990.72;2037282;28;20044;-75
2023/08/23 03:31:35;;;;;;;3.83;1.80;;;;;;;-145.81;100.00;67990.72;2037440;28;20152;-75
2023/08/23 03:32:42;;;;;;;2.90;1.58;;;;;;;-145.81;100.00;67990.72;2037283;28;20059;-75
2023/08/23 03:33:45;;;;;;;6.80;1.45;;;;;;;-145.81;100.00;67990.72;2046156;28;20123;-75
2023/08/23 03:34:46;;;;;;;4.60;1.60;;;;;;;-145.81;100.00;67990.72;2052711;28;20061;-76
2023/08/23 03:35:56;;;;;;;1.95;1.60;;;;;;;-145.81;100.00;67990.72;2060330;28;20090;-75
2023/08/23 03:37:01;;;;;;;3.28;1.40;;;;;;;-145.81;100.00;67990.72;2068480;28;20090;-75
2023/08/23 03:38:02;;;;;;;4.60;1.70;;;;;;;-145.81;100.00;67990.72;2052202;28;20032;-75
2023/08/23 03:39:07;;;;;;;3.95;1.67;;;;;;;-145.81;100.00;67990.72;2061136;28;20027;-75
2023/08/23 03:40:12;;;;;;;4.25;1.80;;;;;;;-145.81;100.00;67990.72;2052351;28;20051;-75
2023/08/23 03:41:19;;;;;;;2.60;1.40;;;;;;;-145.81;100.00;67990.72;2030546;29;20085;-75
2023/08/23 03:42:24;;;;;;;4.82;1.70;;;;;;;-145.81;100.00;67990.72;2045603;28;20027;-76
2023/08/23 03:43:31;;;;;;;4.65;1.63;;;;;;;-145.81;100.00;67990.72;2068925;28;20097;-76
2023/08/23 03:44:33;;;;;;;4.82;1.52;;;;;;;-145.81;100.00;67990.72;2060269;28;20787;-75
2023/08/23 03:45:44;;;;;;;5.20;1.55;;;;;;;-145.81;100.00;67990.72;2036713;29;20036;-76
2023/08/23 03:46:51;;;;;;;2.83;1.50;;;;;;;-145.81;100.00;67990.72;2041342;28;20860;-76
2023/08/23 03:47:53;;;;;;;3.20;1.70;;;;;;;-145.81;100.00;67990.72;2052790;28;20055;-75
2023/08/23 03:48:56;;;;;;;2.83;1.58;;;;;;;-145.81;100.00;67990.72;2052405;28;20111;-75
2023/08/23 03:49:58;;;;;;;4.32;1.50;;;;;;;-145.81;100.00;67990.72;2052798;28;20080;-76
2023/08/23 03:51:03;;;;;;;3.55;1.80;;;;;;;-145.81;100.00;67990.72;2061347;28;20027;-76
2023/08/23 03:52:06;;;;;;;4.95;1.85;;;;;;;-145.81;100.00;67990.72;2052510;28;20046;-75
2023/08/23 03:53:11;;;;;;;5.13;1.98;;;;;;;-145.81;100.00;67990.72;2036983;28;20024;-75
2023/08/23 03:54:15;;;;;;;3.55;1.45;;;;;;;-145.81;100.00;67990.72;2037858;28;20067;-75
2023/08/23 03:55:21;;;;;;;4.03;1.65;;;;;;;-145.81;100.00;67990.72;2046159;28;20028;-75
2023/08/23 03:56:24;;;;;;;3.55;1.60;;;;;;;-145.81;100.00;67990.72;2060534;28;20031;-75
2023/08/23 03:57:32;;;;;;;2.90;1.63;;;;;;;-145.81;100.00;67990.72;2052748;28;20028;-75
2023/08/23 03:58:34;;;;;;;4.03;1.58;;;;;;;-145.81;100.00;67990.72;2045408;28;20055;-75
2023/08/23 03:59:39;;;;;;;2.50;1.42;;;;;;;-145.81;100.00;67990.72;2053517;28;20763;-75
2023/08/23 04:00:41;;;;;;;4.60;1.80;;;;;;;-145.81;100.00;67990.72;2068237;28;20027;-75
2023/08/23 04:01:43;;;;;;;3.17;1.60;;;;;;;-145.81;100.00;67990.72;2052024;28;20039;-75
2023/08/23 04:02:46;;;;;;;7.38;1.70;;;;;;;-145.81;100.00;67990.72;2044507;28;20035;-75
2023/08/23 04:03:48;;;;;;;6.35;1.83;;;;;;;-145.81;100.00;67990.72;2044826;28;20047;-75
2023/08/23 04:04:52;;;;;;;3.78;1.65;;;;;;;-145.81;100.00;67990.72;2060801;28;20101;-75
2023/08/23 04:05:57;;;;;;;3.70;1.58;;;;;;;-145.81;100.00;67990.72;2068739;28;20143;-75
2023/08/23 04:07:04;;;;;;;6.80;1.45;;;;;;;-145.81;100.00;67990.72;2060028;28;20135;-75
2023/08/23 04:08:08;;;;;;;5.03;1.48;;;;;;;-145.81;100.00;67990.72;2048413;28;20079;-75
2023/08/23 04:09:15;;;;;;;2.78;1.45;;;;;;;-145.81;100.00;67990.72;2045114;28;20033;-75
2023/08/23 04:10:19;;;;;;;3.00;1.50;;;;;;;-145.81;100.00;67990.72;2052428;28;20175;-75
2023/08/23 04:11:26;;;;;;;4.32;1.88;;;;;;;-145.81;100.00;67990.72;2052057;28;20039;-76
2023/08/23 04:12:28;;;;;;;3.42;1.58;;;;;;;-145.81;100.00;67990.72;2029099;29;20116;-75
2023/08/23 04:13:32;;;;;;;4.50;1.70;;;;;;;-145.81;100.00;67990.72;2029998;28;20035;-75
2023/08/23 04:14:35;;;;;;;2.88;1.60;;;;;;;-145.81;100.00;67990.72;2044697;28;20055;-76
2023/08/23 04:15:37;;;;;;;8.45;1.80;;;;;;;-145.81;100.00;67990.72;2052238;28;20039;-76
2023/08/23 04:16:40;;;;;;;6.90;2.90;;;;;;;-145.81;100.00;67990.72;2060169;28;20035;-75
2023/08/23 04:17:41;;;;;;;6.22;2.92;;;;;;;-145.81;100.00;67990.72;2044057;29;20040;-76
2023/08/23 04:18:43;;;;;;;4.93;2.47;;;;;;;-145.81;100.00;67990.72;2049005;28;20623;-75
2023/08/23 04:19:47;;;;;;;5.38;2.20;;;;;;;-145.81;100.00;67990.72;2051799;28;20043;-75
2023/08/23 04:21:00;;;;;;;3.15;1.60;;;;;;;-145.81;100.00;67990.72;2060943;28;20072;-75
2023/08/23 04:22:03;;;;;;;5.30;1.83;;;;;;;-145.81;100.00;67990.72;2067033;28;20873;-76
2023/08/23 04:23:06;;;;;;;4.30;1.75;;;;;;;-145.81;100.00;67990.72;2068545;28;20054;-76
2023/08/23 04:24:08;;;;;;;2.17;1.45;;;;;;;-145.81;100.00;67990.72;2051696;28;20032;-76
2023/08/23 04:25:12;;;;;;;2.78;1.50;;;;;;;-145.81;100.00;67990.72;2052647;28;20047;-76
2023/08/23 04:26:13;;;;;;;4.00;1.60;;;;;;;-145.81;100.00;67990.72;2059898;28;20027;-76
2023/08/23 04:27:21;;;;;;;3.42;1.50;;;;;;;-145.81;100.00;67990.72;2060292;28;20077;-76
2023/08/23 04:28:23;;;;;;;3.17;1.30;;;;;;;-145.81;100.00;67990.72;2052235;28;20028;-79
2023/08/23 04:29:25;;;;;;;5.10;1.90;;;;;;;-145.81;100.00;67990.72;2036480;28;20157;-75
2023/08/23 04:30:29;;;;;;;3.58;1.70;;;;;;;-145.81;100.00;67990.72;2044551;28;20079;-75
2023/08/23 04:31:33;;;;;;;4.03;1.50;;;;;;;-145.81;100.00;67990.72;2052775;28;20036;-75
2023/08/23 04:32:43;;;;;;;3.58;1.60;;;;;;;-145.81;100.00;67990.72;2053159;28;20134;-75
2023/08/23 04:33:47;;;;;;;4.88;1.60;;;;;;;-145.81;100.00;67990.72;2052396;28;20047;-76
2023/08/23 04:34:52;;;;;;;2.90;1.58;;;;;;;-145.81;100.00;67990.72;2053166;28;20035;-76
2023/08/23 04:35:56;;;;;;;3.08;1.70;;;;;;;-145.81;100.00;67990.72;2044065;29;20066;-76
2023/08/23 04:36:59;;;;;;;4.68;1.90;;;;;;;-145.81;100.00;67990.72;2036713;28;20044;-76
2023/08/23 04:38:02;;;;;;;3.40;1.65;;;;;;;-145.81;100.00;67990.72;2052378;28;20044;-77
2023/08/23 04:39:07;;;;;;;3.47;2.03;;;;;;;-145.81;100.00;67990.72;2059979;28;20162;-77
2023/08/23 04:40:12;;;;;;;6.35;1.85;;;;;;;-145.81;100.00;67990.72;2057595;28;20041;-75
2023/08/23 04:41:15;;;;;;;4.10;1.63;;;;;;;-145.81;100.00;67990.72;2051681;28;20039;-75
2023/08/23 04:42:17;;;;;;;5.47;1.60;;;;;;;-145.81;100.00;67990.72;2036207;29;20047;-75
2023/08/23 04:43:21;;;;;;;5.72;1.80;;;;;;;-145.81;100.00;67990.72;2035836;28;20040;-77
2023/08/23 04:44:29;;;;;;;3.35;1.60;;;;;;;-145.81;100.00;67990.72;2044463;29;20150;-85
2023/08/23 04:45:32;;;;;;;3.75;1.50;;;;;;;-145.81;100.00;67990.72;2029445;29;20033;-79
2023/08/23 04:46:35;;;;;;;2.72;1.60;;;;;;;-145.81;100.00;67990.72;2036772;29;20080;-84
2023/08/23 04:47:42;;;;;;;2.60;1.48;;;;;;;-145.81;100.00;67990.72;2048599;28;20149;-81
2023/08/23 04:48:45;;;;;;;4.05;1.50;;;;;;;-145.81;100.00;67990.72;2052324;28;20043;-80
2023/08/23 04:49:48;;;;;;;7.10;1.67;;;;;;;-145.81;100.00;67990.72;2043631;29;20032;-80
2023/08/23 04:50:59;;;;;;;4.95;1.50;;;;;;;-145.81;100.00;67990.72;2021124;29;20034;-81
2023/08/23 04:52:02;;;;;;;5.90;1.40;;;;;;;-145.81;100.00;67990.72;2040531;28;20064;-81
2023/08/23 04:53:07;;;;;;;3.20;1.52;;;;;;;-145.81;100.00;67990.72;2051921;28;20042;-81